sensor_id;sensor_type;location;lat;lon;timestamp;P1;durP1;ratioP1;P2;durP2;ratioP2
51560;SDS011;37654;51.262;17.058;2023-02-18T00:00:56;3.65;;;1.02;;
51560;SDS011;37654;51.262;17.058;2023-02-18T00:03:22;4.40;;;1.00;;
51560;SDS011;37654;51.262;17.058;2023-02-18T00:05:47;3.78;;;0.70;;
51560;SDS011;37654;51.262;17.058;2023-02-18T00:08:13;6.22;;;1.27;;
51560;SDS011;37654;51.262;17.058;2023-02-18T00:10:39;5.10;;;1.00;;
51560;SDS011;37654;51.262;17.058;2023-02-18T00:13:05;5.63;;;1.20;;
51560;SDS011;37654;51.262;17.058;2023-02-18T00:15:30;3.23;;;0.90;;
51560;SDS011;37654;51.262;17.058;2023-02-18T00:17:55;2.33;;;0.75;;
51560;SDS011;37654;51.262;17.058;2023-02-18T00:20:21;2.77;;;0.57;;
51560;SDS011;37654;51.262;17.058;2023-02-18T00:22:46;4.60;;;0.70;;
51560;SDS011;37654;51.262;17.058;2023-02-18T00:25:11;0.82;;;0.60;;
51560;SDS011;37654;51.262;17.058;2023-02-18T00:27:36;6.30;;;0.93;;
51560;SDS011;37654;51.262;17.058;2023-02-18T00:30:02;4.03;;;1.17;;
51560;SDS011;37654;51.262;17.058;2023-02-18T00:32:28;3.55;;;0.95;;
51560;SDS011;37654;51.262;17.058;2023-02-18T00:34:53;4.55;;;1.65;;
51560;SDS011;37654;51.262;17.058;2023-02-18T00:37:18;3.53;;;1.05;;
51560;SDS011;37654;51.262;17.058;2023-02-18T00:39:44;4.05;;;0.95;;
51560;SDS011;37654;51.262;17.058;2023-02-18T00:42:09;4.03;;;1.43;;
51560;SDS011;37654;51.262;17.058;2023-02-18T00:44:34;5.25;;;1.05;;
51560;SDS011;37654;51.262;17.058;2023-02-18T00:47:00;1.58;;;0.60;;
51560;SDS011;37654;51.262;17.058;2023-02-18T00:49:25;2.05;;;0.80;;
51560;SDS011;37654;51.262;17.058;2023-02-18T00:51:50;5.95;;;0.70;;
51560;SDS011;37654;51.262;17.058;2023-02-18T00:54:15;3.25;;;0.68;;
51560;SDS011;37654;51.262;17.058;2023-02-18T00:56:41;3.45;;;0.65;;
51560;SDS011;37654;51.262;17.058;2023-02-18T00:59:06;2.80;;;0.60;;
51560;SDS011;37654;51.262;17.058;2023-02-18T01:01:31;1.80;;;0.47;;
51560;SDS011;37654;51.262;17.058;2023-02-18T01:03:57;2.53;;;0.77;;
51560;SDS011;37654;51.262;17.058;2023-02-18T01:06:22;3.25;;;0.80;;
51560;SDS011;37654;51.262;17.058;2023-02-18T01:08:47;3.38;;;1.55;;
51560;SDS011;37654;51.262;17.058;2023-02-18T01:11:13;3.22;;;0.68;;
51560;SDS011;37654;51.262;17.058;2023-02-18T01:13:39;4.20;;;0.65;;
51560;SDS011;37654;51.262;17.058;2023-02-18T01:16:05;3.83;;;0.60;;
51560;SDS011;37654;51.262;17.058;2023-02-18T01:18:30;7.35;;;0.80;;
51560;SDS011;37654;51.262;17.058;2023-02-18T01:20:57;2.97;;;0.90;;
51560;SDS011;37654;51.262;17.058;2023-02-18T01:23:23;4.55;;;1.10;;
51560;SDS011;37654;51.262;17.058;2023-02-18T01:25:48;5.03;;;0.88;;
51560;SDS011;37654;51.262;17.058;2023-02-18T01:28:14;7.45;;;1.65;;
51560;SDS011;37654;51.262;17.058;2023-02-18T01:30:39;2.83;;;1.30;;
51560;SDS011;37654;51.262;17.058;2023-02-18T01:33:05;4.88;;;1.20;;
51560;SDS011;37654;51.262;17.058;2023-02-18T01:35:31;3.08;;;0.55;;
51560;SDS011;37654;51.262;17.058;2023-02-18T01:37:56;5.10;;;0.68;;
51560;SDS011;37654;51.262;17.058;2023-02-18T01:40:23;2.83;;;0.88;;
51560;SDS011;37654;51.262;17.058;2023-02-18T01:42:49;5.63;;;1.33;;
51560;SDS011;37654;51.262;17.058;2023-02-18T01:47:54;1.42;;;0.40;;
51560;SDS011;37654;51.262;17.058;2023-02-18T01:50:20;5.80;;;1.05;;
51560;SDS011;37654;51.262;17.058;2023-02-18T01:52:45;4.65;;;0.65;;
51560;SDS011;37654;51.262;17.058;2023-02-18T01:55:12;6.07;;;0.90;;
51560;SDS011;37654;51.262;17.058;2023-02-18T01:57:37;3.13;;;1.27;;
51560;SDS011;37654;51.262;17.058;2023-02-18T02:00:12;4.90;;;1.48;;
51560;SDS011;37654;51.262;17.058;2023-02-18T02:02:38;2.47;;;0.82;;
51560;SDS011;37654;51.262;17.058;2023-02-18T02:05:04;2.65;;;1.00;;
51560;SDS011;37654;51.262;17.058;2023-02-18T02:07:30;7.18;;;0.80;;
51560;SDS011;37654;51.262;17.058;2023-02-18T02:09:56;2.63;;;0.63;;
51560;SDS011;37654;51.262;17.058;2023-02-18T02:22:46;2.27;;;0.70;;
51560;SDS011;37654;51.262;17.058;2023-02-18T02:27:50;2.35;;;0.70;;
51560;SDS011;37654;51.262;17.058;2023-02-18T02:30:32;5.15;;;0.90;;
51560;SDS011;37654;51.262;17.058;2023-02-18T02:36:07;2.50;;;0.52;;
51560;SDS011;37654;51.262;17.058;2023-02-18T02:43:42;2.90;;;1.00;;
51560;SDS011;37654;51.262;17.058;2023-02-18T02:46:20;6.75;;;1.30;;
51560;SDS011;37654;51.262;17.058;2023-02-18T02:51:28;6.13;;;1.02;;
51560;SDS011;37654;51.262;17.058;2023-02-18T02:53:54;5.90;;;1.35;;
51560;SDS011;37654;51.262;17.058;2023-02-18T02:56:32;6.15;;;1.15;;
51560;SDS011;37654;51.262;17.058;2023-02-18T02:59:00;6.77;;;1.03;;
51560;SDS011;37654;51.262;17.058;2023-02-18T03:01:40;5.05;;;0.63;;
51560;SDS011;37654;51.262;17.058;2023-02-18T03:09:17;1.97;;;0.60;;
51560;SDS011;37654;51.262;17.058;2023-02-18T03:14:22;5.30;;;0.60;;
51560;SDS011;37654;51.262;17.058;2023-02-18T03:19:37;7.13;;;1.20;;
51560;SDS011;37654;51.262;17.058;2023-02-18T03:22:05;6.63;;;1.02;;
51560;SDS011;37654;51.262;17.058;2023-02-18T03:24:38;7.60;;;0.80;;
51560;SDS011;37654;51.262;17.058;2023-02-18T03:27:09;2.75;;;0.52;;
51560;SDS011;37654;51.262;17.058;2023-02-18T03:29:36;5.30;;;0.82;;
51560;SDS011;37654;51.262;17.058;2023-02-18T03:32:04;8.95;;;0.77;;
51560;SDS011;37654;51.262;17.058;2023-02-18T03:34:31;6.90;;;1.05;;
51560;SDS011;37654;51.262;17.058;2023-02-18T03:36:58;7.03;;;1.30;;
51560;SDS011;37654;51.262;17.058;2023-02-18T03:39:25;6.03;;;0.63;;
51560;SDS011;37654;51.262;17.058;2023-02-18T03:41:51;8.02;;;0.80;;
51560;SDS011;37654;51.262;17.058;2023-02-18T03:44:16;6.30;;;0.85;;
51560;SDS011;37654;51.262;17.058;2023-02-18T03:46:42;3.40;;;0.80;;
51560;SDS011;37654;51.262;17.058;2023-02-18T03:49:08;2.15;;;0.65;;
51560;SDS011;37654;51.262;17.058;2023-02-18T03:51:34;4.72;;;0.80;;
51560;SDS011;37654;51.262;17.058;2023-02-18T03:53:59;4.47;;;0.90;;
51560;SDS011;37654;51.262;17.058;2023-02-18T03:56:25;4.88;;;0.95;;
51560;SDS011;37654;51.262;17.058;2023-02-18T03:58:50;3.25;;;1.00;;
51560;SDS011;37654;51.262;17.058;2023-02-18T04:01:15;4.40;;;0.68;;
51560;SDS011;37654;51.262;17.058;2023-02-18T04:03:41;4.80;;;0.70;;
51560;SDS011;37654;51.262;17.058;2023-02-18T04:06:06;5.07;;;1.08;;
51560;SDS011;37654;51.262;17.058;2023-02-18T04:08:31;7.43;;;0.98;;
51560;SDS011;37654;51.262;17.058;2023-02-18T04:10:57;5.38;;;0.70;;
51560;SDS011;37654;51.262;17.058;2023-02-18T04:13:22;5.32;;;0.73;;
51560;SDS011;37654;51.262;17.058;2023-02-18T04:15:48;4.57;;;0.93;;
51560;SDS011;37654;51.262;17.058;2023-02-18T04:18:13;4.35;;;0.60;;
51560;SDS011;37654;51.262;17.058;2023-02-18T04:20:38;7.00;;;1.17;;
51560;SDS011;37654;51.262;17.058;2023-02-18T04:23:03;3.38;;;0.60;;
51560;SDS011;37654;51.262;17.058;2023-02-18T04:25:29;6.70;;;1.20;;
51560;SDS011;37654;51.262;17.058;2023-02-18T04:27:54;6.50;;;0.80;;
51560;SDS011;37654;51.262;17.058;2023-02-18T04:30:20;7.27;;;0.80;;
51560;SDS011;37654;51.262;17.058;2023-02-18T04:32:45;5.03;;;1.52;;
51560;SDS011;37654;51.262;17.058;2023-02-18T04:35:11;8.07;;;1.10;;
51560;SDS011;37654;51.262;17.058;2023-02-18T04:37:36;5.43;;;0.70;;
51560;SDS011;37654;51.262;17.058;2023-02-18T04:40:01;5.87;;;0.80;;
51560;SDS011;37654;51.262;17.058;2023-02-18T04:42:27;12.30;;;1.75;;
51560;SDS011;37654;51.262;17.058;2023-02-18T04:44:52;3.87;;;0.87;;
51560;SDS011;37654;51.262;17.058;2023-02-18T04:47:17;3.03;;;1.10;;
51560;SDS011;37654;51.262;17.058;2023-02-18T04:49:42;2.22;;;0.70;;
51560;SDS011;37654;51.262;17.058;2023-02-18T04:52:08;2.63;;;0.80;;
51560;SDS011;37654;51.262;17.058;2023-02-18T04:54:33;6.10;;;1.10;;
51560;SDS011;37654;51.262;17.058;2023-02-18T04:56:59;5.97;;;0.88;;
51560;SDS011;37654;51.262;17.058;2023-02-18T04:59:24;6.05;;;0.80;;
51560;SDS011;37654;51.262;17.058;2023-02-18T05:01:49;3.55;;;0.57;;
51560;SDS011;37654;51.262;17.058;2023-02-18T05:04:15;4.28;;;0.50;;
51560;SDS011;37654;51.262;17.058;2023-02-18T05:06:41;5.15;;;1.20;;
51560;SDS011;37654;51.262;17.058;2023-02-18T05:09:07;4.47;;;1.38;;
51560;SDS011;37654;51.262;17.058;2023-02-18T05:11:32;3.30;;;0.75;;
51560;SDS011;37654;51.262;17.058;2023-02-18T05:13:57;3.75;;;0.95;;
51560;SDS011;37654;51.262;17.058;2023-02-18T05:16:23;2.83;;;0.70;;
51560;SDS011;37654;51.262;17.058;2023-02-18T05:18:48;3.05;;;0.70;;
51560;SDS011;37654;51.262;17.058;2023-02-18T05:21:13;2.20;;;0.70;;
51560;SDS011;37654;51.262;17.058;2023-02-18T05:23:38;4.22;;;0.90;;
51560;SDS011;37654;51.262;17.058;2023-02-18T05:26:04;6.60;;;1.08;;
51560;SDS011;37654;51.262;17.058;2023-02-18T05:28:29;1.25;;;0.52;;
51560;SDS011;37654;51.262;17.058;2023-02-18T05:30:54;3.47;;;1.00;;
51560;SDS011;37654;51.262;17.058;2023-02-18T05:33:20;11.57;;;2.17;;
51560;SDS011;37654;51.262;17.058;2023-02-18T05:35:45;4.90;;;0.90;;
51560;SDS011;37654;51.262;17.058;2023-02-18T05:38:10;2.97;;;0.70;;
51560;SDS011;37654;51.262;17.058;2023-02-18T05:40:36;3.05;;;1.02;;
51560;SDS011;37654;51.262;17.058;2023-02-18T05:43:02;8.07;;;1.10;;
51560;SDS011;37654;51.262;17.058;2023-02-18T05:45:27;8.38;;;0.82;;
51560;SDS011;37654;51.262;17.058;2023-02-18T05:47:52;3.35;;;0.52;;
51560;SDS011;37654;51.262;17.058;2023-02-18T05:50:18;4.88;;;1.10;;
51560;SDS011;37654;51.262;17.058;2023-02-18T05:52:43;4.90;;;0.90;;
51560;SDS011;37654;51.262;17.058;2023-02-18T05:55:08;4.15;;;0.98;;
51560;SDS011;37654;51.262;17.058;2023-02-18T05:57:34;8.80;;;1.13;;
51560;SDS011;37654;51.262;17.058;2023-02-18T05:59:59;1.77;;;0.70;;
51560;SDS011;37654;51.262;17.058;2023-02-18T06:02:24;4.25;;;0.73;;
51560;SDS011;37654;51.262;17.058;2023-02-18T06:04:50;3.83;;;0.70;;
51560;SDS011;37654;51.262;17.058;2023-02-18T06:07:15;7.10;;;1.08;;
51560;SDS011;37654;51.262;17.058;2023-02-18T06:09:40;7.30;;;1.70;;
51560;SDS011;37654;51.262;17.058;2023-02-18T06:12:05;4.75;;;0.68;;
51560;SDS011;37654;51.262;17.058;2023-02-18T06:14:31;4.47;;;0.95;;
51560;SDS011;37654;51.262;17.058;2023-02-18T06:16:56;3.42;;;0.65;;
51560;SDS011;37654;51.262;17.058;2023-02-18T06:19:21;4.70;;;0.73;;
51560;SDS011;37654;51.262;17.058;2023-02-18T06:21:47;2.65;;;0.65;;
51560;SDS011;37654;51.262;17.058;2023-02-18T06:24:12;5.57;;;0.95;;
51560;SDS011;37654;51.262;17.058;2023-02-18T06:26:39;5.45;;;0.80;;
51560;SDS011;37654;51.262;17.058;2023-02-18T06:29:04;4.53;;;1.13;;
51560;SDS011;37654;51.262;17.058;2023-02-18T06:31:29;2.50;;;1.13;;
51560;SDS011;37654;51.262;17.058;2023-02-18T06:33:55;3.92;;;0.95;;
51560;SDS011;37654;51.262;17.058;2023-02-18T06:36:20;4.88;;;0.88;;
51560;SDS011;37654;51.262;17.058;2023-02-18T06:38:45;1.77;;;0.93;;
51560;SDS011;37654;51.262;17.058;2023-02-18T06:41:11;4.20;;;1.15;;
51560;SDS011;37654;51.262;17.058;2023-02-18T06:43:36;4.20;;;0.77;;
51560;SDS011;37654;51.262;17.058;2023-02-18T06:46:02;3.03;;;0.95;;
51560;SDS011;37654;51.262;17.058;2023-02-18T06:48:28;7.38;;;1.25;;
51560;SDS011;37654;51.262;17.058;2023-02-18T06:50:53;3.55;;;0.80;;
51560;SDS011;37654;51.262;17.058;2023-02-18T06:53:19;3.17;;;0.75;;
51560;SDS011;37654;51.262;17.058;2023-02-18T06:55:44;5.72;;;1.00;;
51560;SDS011;37654;51.262;17.058;2023-02-18T06:58:10;2.20;;;0.63;;
51560;SDS011;37654;51.262;17.058;2023-02-18T07:00:36;4.13;;;0.77;;
51560;SDS011;37654;51.262;17.058;2023-02-18T07:03:01;5.18;;;1.10;;
51560;SDS011;37654;51.262;17.058;2023-02-18T07:05:26;5.50;;;0.80;;
51560;SDS011;37654;51.262;17.058;2023-02-18T07:07:52;5.55;;;0.95;;
51560;SDS011;37654;51.262;17.058;2023-02-18T07:10:17;4.88;;;1.00;;
51560;SDS011;37654;51.262;17.058;2023-02-18T07:12:42;4.65;;;0.80;;
51560;SDS011;37654;51.262;17.058;2023-02-18T07:15:08;1.13;;;0.57;;
51560;SDS011;37654;51.262;17.058;2023-02-18T07:17:33;4.38;;;0.77;;
51560;SDS011;37654;51.262;17.058;2023-02-18T07:19:59;3.75;;;0.90;;
51560;SDS011;37654;51.262;17.058;2023-02-18T07:22:25;1.42;;;0.57;;
51560;SDS011;37654;51.262;17.058;2023-02-18T07:24:51;4.55;;;0.80;;
51560;SDS011;37654;51.262;17.058;2023-02-18T07:27:18;2.28;;;0.50;;
51560;SDS011;37654;51.262;17.058;2023-02-18T07:29:44;3.83;;;0.55;;
51560;SDS011;37654;51.262;17.058;2023-02-18T07:32:13;7.32;;;1.25;;
51560;SDS011;37654;51.262;17.058;2023-02-18T07:34:38;4.57;;;1.05;;
51560;SDS011;37654;51.262;17.058;2023-02-18T07:37:04;2.05;;;0.70;;
51560;SDS011;37654;51.262;17.058;2023-02-18T07:39:33;7.20;;;0.90;;
51560;SDS011;37654;51.262;17.058;2023-02-18T07:41:59;9.05;;;1.08;;
51560;SDS011;37654;51.262;17.058;2023-02-18T07:44:24;5.30;;;0.73;;
51560;SDS011;37654;51.262;17.058;2023-02-18T07:46:51;5.20;;;0.95;;
51560;SDS011;37654;51.262;17.058;2023-02-18T07:49:17;3.90;;;0.57;;
51560;SDS011;37654;51.262;17.058;2023-02-18T07:51:42;3.28;;;0.60;;
51560;SDS011;37654;51.262;17.058;2023-02-18T07:54:10;5.05;;;1.00;;
51560;SDS011;37654;51.262;17.058;2023-02-18T07:56:35;3.33;;;0.90;;
51560;SDS011;37654;51.262;17.058;2023-02-18T07:59:01;5.50;;;0.87;;
51560;SDS011;37654;51.262;17.058;2023-02-18T08:01:26;3.83;;;0.82;;
51560;SDS011;37654;51.262;17.058;2023-02-18T08:03:53;3.75;;;0.65;;
51560;SDS011;37654;51.262;17.058;2023-02-18T08:06:19;1.75;;;0.70;;
51560;SDS011;37654;51.262;17.058;2023-02-18T08:08:45;3.60;;;0.80;;
51560;SDS011;37654;51.262;17.058;2023-02-18T08:11:10;6.78;;;0.93;;
51560;SDS011;37654;51.262;17.058;2023-02-18T08:13:36;3.05;;;1.08;;
51560;SDS011;37654;51.262;17.058;2023-02-18T08:16:01;0.68;;;0.50;;
51560;SDS011;37654;51.262;17.058;2023-02-18T08:18:26;2.60;;;0.77;;
51560;SDS011;37654;51.262;17.058;2023-02-18T08:20:52;2.67;;;0.52;;
51560;SDS011;37654;51.262;17.058;2023-02-18T08:23:18;4.72;;;0.80;;
51560;SDS011;37654;51.262;17.058;2023-02-18T08:25:44;2.28;;;0.88;;
51560;SDS011;37654;51.262;17.058;2023-02-18T08:28:10;6.13;;;1.08;;
51560;SDS011;37654;51.262;17.058;2023-02-18T08:30:35;3.63;;;0.55;;
51560;SDS011;37654;51.262;17.058;2023-02-18T08:33:03;2.97;;;0.60;;
51560;SDS011;37654;51.262;17.058;2023-02-18T08:35:31;1.98;;;0.60;;
51560;SDS011;37654;51.262;17.058;2023-02-18T08:37:57;5.05;;;1.30;;
51560;SDS011;37654;51.262;17.058;2023-02-18T08:40:25;3.40;;;0.60;;
51560;SDS011;37654;51.262;17.058;2023-02-18T08:42:50;4.10;;;0.45;;
51560;SDS011;37654;51.262;17.058;2023-02-18T08:45:16;5.60;;;0.85;;
51560;SDS011;37654;51.262;17.058;2023-02-18T08:47:41;1.63;;;0.60;;
51560;SDS011;37654;51.262;17.058;2023-02-18T08:50:08;3.40;;;0.40;;
51560;SDS011;37654;51.262;17.058;2023-02-18T08:52:34;3.95;;;1.05;;
51560;SDS011;37654;51.262;17.058;2023-02-18T08:54:59;2.60;;;0.82;;
51560;SDS011;37654;51.262;17.058;2023-02-18T08:57:26;3.30;;;0.90;;
51560;SDS011;37654;51.262;17.058;2023-02-18T08:59:51;2.67;;;0.70;;
51560;SDS011;37654;51.262;17.058;2023-02-18T09:02:18;3.33;;;0.70;;
51560;SDS011;37654;51.262;17.058;2023-02-18T09:04:46;1.48;;;0.45;;
51560;SDS011;37654;51.262;17.058;2023-02-18T09:07:15;4.32;;;1.73;;
51560;SDS011;37654;51.262;17.058;2023-02-18T09:09:41;6.95;;;0.77;;
51560;SDS011;37654;51.262;17.058;2023-02-18T09:12:07;2.73;;;0.70;;
51560;SDS011;37654;51.262;17.058;2023-02-18T09:14:32;3.80;;;0.80;;
51560;SDS011;37654;51.262;17.058;2023-02-18T09:16:58;6.72;;;2.05;;
51560;SDS011;37654;51.262;17.058;2023-02-18T09:19:23;5.80;;;2.13;;
51560;SDS011;37654;51.262;17.058;2023-02-18T09:21:50;6.57;;;1.15;;
51560;SDS011;37654;51.262;17.058;2023-02-18T09:24:18;5.10;;;2.00;;
51560;SDS011;37654;51.262;17.058;2023-02-18T09:26:45;2.75;;;0.90;;
51560;SDS011;37654;51.262;17.058;2023-02-18T09:29:13;5.70;;;2.42;;
51560;SDS011;37654;51.262;17.058;2023-02-18T09:31:39;10.57;;;3.88;;
51560;SDS011;37654;51.262;17.058;2023-02-18T09:34:05;6.97;;;2.97;;
51560;SDS011;37654;51.262;17.058;2023-02-18T09:36:31;5.68;;;2.53;;
51560;SDS011;37654;51.262;17.058;2023-02-18T09:38:57;5.82;;;1.48;;
51560;SDS011;37654;51.262;17.058;2023-02-18T09:41:28;8.38;;;2.35;;
51560;SDS011;37654;51.262;17.058;2023-02-18T09:44:00;3.28;;;0.90;;
51560;SDS011;37654;51.262;17.058;2023-02-18T09:48:51;4.45;;;0.70;;
51560;SDS011;37654;51.262;17.058;2023-02-18T09:51:18;2.92;;;0.77;;
51560;SDS011;37654;51.262;17.058;2023-02-18T09:53:44;4.95;;;1.27;;
51560;SDS011;37654;51.262;17.058;2023-02-18T09:56:21;3.13;;;0.80;;
51560;SDS011;37654;51.262;17.058;2023-02-18T09:58:48;3.50;;;0.93;;
51560;SDS011;37654;51.262;17.058;2023-02-18T10:01:21;4.82;;;0.75;;
51560;SDS011;37654;51.262;17.058;2023-02-18T10:03:48;2.13;;;0.60;;
51560;SDS011;37654;51.262;17.058;2023-02-18T10:06:17;5.72;;;1.10;;
51560;SDS011;37654;51.262;17.058;2023-02-18T10:08:47;2.97;;;0.90;;
51560;SDS011;37654;51.262;17.058;2023-02-18T10:11:14;2.72;;;0.85;;
51560;SDS011;37654;51.262;17.058;2023-02-18T10:13:41;3.67;;;0.80;;
51560;SDS011;37654;51.262;17.058;2023-02-18T10:16:06;5.78;;;0.65;;
51560;SDS011;37654;51.262;17.058;2023-02-18T10:18:41;9.43;;;1.00;;
51560;SDS011;37654;51.262;17.058;2023-02-18T10:21:12;1.83;;;0.60;;
51560;SDS011;37654;51.262;17.058;2023-02-18T10:23:42;1.27;;;0.80;;
51560;SDS011;37654;51.262;17.058;2023-02-18T10:26:11;3.15;;;1.00;;
51560;SDS011;37654;51.262;17.058;2023-02-18T10:28:38;2.05;;;0.90;;
51560;SDS011;37654;51.262;17.058;2023-02-18T10:31:04;6.95;;;1.48;;
51560;SDS011;37654;51.262;17.058;2023-02-18T10:33:36;4.80;;;0.90;;
51560;SDS011;37654;51.262;17.058;2023-02-18T10:36:07;4.32;;;0.90;;
51560;SDS011;37654;51.262;17.058;2023-02-18T10:38:50;8.77;;;0.90;;
51560;SDS011;37654;51.262;17.058;2023-02-18T10:46:46;3.83;;;0.93;;
51560;SDS011;37654;51.262;17.058;2023-02-18T10:51:49;10.05;;;2.15;;
51560;SDS011;37654;51.262;17.058;2023-02-18T10:54:15;7.57;;;1.00;;
51560;SDS011;37654;51.262;17.058;2023-02-18T10:56:41;5.30;;;1.27;;
51560;SDS011;37654;51.262;17.058;2023-02-18T10:59:23;3.80;;;1.10;;
51560;SDS011;37654;51.262;17.058;2023-02-18T11:02:31;6.05;;;1.23;;
51560;SDS011;37654;51.262;17.058;2023-02-18T11:04:38;3.53;;;1.00;;
51560;SDS011;37654;51.262;17.058;2023-02-18T11:07:15;4.90;;;1.30;;
51560;SDS011;37654;51.262;17.058;2023-02-18T11:09:50;4.82;;;1.10;;
51560;SDS011;37654;51.262;17.058;2023-02-18T11:12:21;5.47;;;1.88;;
51560;SDS011;37654;51.262;17.058;2023-02-18T11:14:48;6.70;;;1.75;;
51560;SDS011;37654;51.262;17.058;2023-02-18T11:17:21;8.40;;;1.77;;
51560;SDS011;37654;51.262;17.058;2023-02-18T11:19:54;6.10;;;1.95;;
51560;SDS011;37654;51.262;17.058;2023-02-18T11:24:45;5.67;;;1.60;;
51560;SDS011;37654;51.262;17.058;2023-02-18T11:27:25;4.28;;;1.55;;
51560;SDS011;37654;51.262;17.058;2023-02-18T11:29:53;6.45;;;1.58;;
51560;SDS011;37654;51.262;17.058;2023-02-18T11:32:20;5.03;;;1.40;;
51560;SDS011;37654;51.262;17.058;2023-02-18T11:34:45;9.95;;;1.85;;
51560;SDS011;37654;51.262;17.058;2023-02-18T11:37:15;6.72;;;1.95;;
51560;SDS011;37654;51.262;17.058;2023-02-18T11:39:42;5.32;;;1.70;;
51560;SDS011;37654;51.262;17.058;2023-02-18T11:42:10;5.75;;;1.35;;
51560;SDS011;37654;51.262;17.058;2023-02-18T11:44:39;4.97;;;1.30;;
51560;SDS011;37654;51.262;17.058;2023-02-18T11:47:16;6.28;;;1.50;;
51560;SDS011;37654;51.262;17.058;2023-02-18T11:49:44;5.40;;;1.60;;
51560;SDS011;37654;51.262;17.058;2023-02-18T11:52:24;7.82;;;2.47;;
51560;SDS011;37654;51.262;17.058;2023-02-18T11:55:00;6.22;;;1.77;;
51560;SDS011;37654;51.262;17.058;2023-02-18T11:57:27;11.63;;;2.55;;
51560;SDS011;37654;51.262;17.058;2023-02-18T11:59:52;8.13;;;1.90;;
51560;SDS011;37654;51.262;17.058;2023-02-18T12:02:40;7.30;;;1.80;;
51560;SDS011;37654;51.262;17.058;2023-02-18T12:05:10;6.13;;;1.50;;
51560;SDS011;37654;51.262;17.058;2023-02-18T12:07:46;6.97;;;1.75;;
51560;SDS011;37654;51.262;17.058;2023-02-18T12:12:49;12.07;;;2.83;;
51560;SDS011;37654;51.262;17.058;2023-02-18T12:15:17;7.55;;;2.20;;
51560;SDS011;37654;51.262;17.058;2023-02-18T12:28:08;10.82;;;3.83;;
51560;SDS011;37654;51.262;17.058;2023-02-18T12:38:45;8.35;;;3.13;;
51560;SDS011;37654;51.262;17.058;2023-02-18T12:41:18;14.15;;;4.70;;
51560;SDS011;37654;51.262;17.058;2023-02-18T13:12:14;20.35;;;6.43;;
51560;SDS011;37654;51.262;17.058;2023-02-18T13:14:52;25.25;;;7.70;;
51560;SDS011;37654;51.262;17.058;2023-02-18T13:17:21;21.15;;;7.97;;
51560;SDS011;37654;51.262;17.058;2023-02-18T13:20:13;15.25;;;6.50;;
51560;SDS011;37654;51.262;17.058;2023-02-18T13:22:33;13.60;;;5.90;;
51560;SDS011;37654;51.262;17.058;2023-02-18T13:24:59;17.65;;;6.93;;
51560;SDS011;37654;51.262;17.058;2023-02-18T13:35:23;21.33;;;8.75;;
51560;SDS011;37654;51.262;17.058;2023-02-18T13:40:28;16.45;;;6.90;;
51560;SDS011;37654;51.262;17.058;2023-02-18T13:43:15;16.63;;;7.30;;
51560;SDS011;37654;51.262;17.058;2023-02-18T13:45:40;17.55;;;7.18;;
51560;SDS011;37654;51.262;17.058;2023-02-18T13:48:20;32.80;;;9.15;;
51560;SDS011;37654;51.262;17.058;2023-02-18T13:50:45;20.83;;;8.02;;
51560;SDS011;37654;51.262;17.058;2023-02-18T13:53:18;13.68;;;6.85;;
51560;SDS011;37654;51.262;17.058;2023-02-18T13:55:50;18.08;;;8.25;;
51560;SDS011;37654;51.262;17.058;2023-02-18T13:58:24;16.83;;;9.30;;
51560;SDS011;37654;51.262;17.058;2023-02-18T14:00:55;24.88;;;10.10;;
51560;SDS011;37654;51.262;17.058;2023-02-18T14:03:32;26.60;;;10.52;;
51560;SDS011;37654;51.262;17.058;2023-02-18T14:05:58;22.42;;;11.02;;
51560;SDS011;37654;51.262;17.058;2023-02-18T14:08:34;22.10;;;10.98;;
51560;SDS011;37654;51.262;17.058;2023-02-18T14:16:10;25.85;;;13.35;;
51560;SDS011;37654;51.262;17.058;2023-02-18T14:21:48;41.45;;;20.35;;
51560;SDS011;37654;51.262;17.058;2023-02-18T14:26:21;44.17;;;19.27;;
51560;SDS011;37654;51.262;17.058;2023-02-18T14:37:09;39.50;;;21.00;;
51560;SDS011;37654;51.262;17.058;2023-02-18T14:51:57;36.35;;;16.63;;
51560;SDS011;37654;51.262;17.058;2023-02-18T14:54:24;34.00;;;14.77;;
51560;SDS011;37654;51.262;17.058;2023-02-18T14:56:55;36.95;;;18.30;;
51560;SDS011;37654;51.262;17.058;2023-02-18T14:59:21;30.17;;;14.63;;
51560;SDS011;37654;51.262;17.058;2023-02-18T15:01:47;33.85;;;17.35;;
51560;SDS011;37654;51.262;17.058;2023-02-18T15:04:13;38.47;;;17.35;;
51560;SDS011;37654;51.262;17.058;2023-02-18T15:06:39;33.65;;;15.15;;
51560;SDS011;37654;51.262;17.058;2023-02-18T15:09:14;32.53;;;15.45;;
51560;SDS011;37654;51.262;17.058;2023-02-18T15:11:43;35.88;;;16.48;;
51560;SDS011;37654;51.262;17.058;2023-02-18T15:14:09;29.90;;;15.23;;
51560;SDS011;37654;51.262;17.058;2023-02-18T15:16:36;29.73;;;13.95;;
51560;SDS011;37654;51.262;17.058;2023-02-18T15:19:02;30.27;;;12.55;;
51560;SDS011;37654;51.262;17.058;2023-02-18T15:23:54;36.10;;;16.17;;
51560;SDS011;37654;51.262;17.058;2023-02-18T15:26:23;35.50;;;14.50;;
51560;SDS011;37654;51.262;17.058;2023-02-18T15:28:57;33.35;;;15.55;;
51560;SDS011;37654;51.262;17.058;2023-02-18T15:31:26;33.42;;;14.25;;
51560;SDS011;37654;51.262;17.058;2023-02-18T15:33:52;33.78;;;15.07;;
51560;SDS011;37654;51.262;17.058;2023-02-18T15:36:17;28.88;;;13.25;;
51560;SDS011;37654;51.262;17.058;2023-02-18T15:38:43;28.13;;;13.32;;
51560;SDS011;37654;51.262;17.058;2023-02-18T15:41:13;15.98;;;7.47;;
51560;SDS011;37654;51.262;17.058;2023-02-18T15:43:38;12.50;;;6.07;;
51560;SDS011;37654;51.262;17.058;2023-02-18T15:46:09;7.25;;;3.70;;
51560;SDS011;37654;51.262;17.058;2023-02-18T15:48:38;5.45;;;3.47;;
51560;SDS011;37654;51.262;17.058;2023-02-18T15:51:09;5.57;;;2.95;;
51560;SDS011;37654;51.262;17.058;2023-02-18T15:53:37;7.30;;;3.10;;
51560;SDS011;37654;51.262;17.058;2023-02-18T15:56:05;6.97;;;2.80;;
51560;SDS011;37654;51.262;17.058;2023-02-18T15:58:31;4.22;;;2.97;;
51560;SDS011;37654;51.262;17.058;2023-02-18T16:00:58;6.53;;;2.60;;
51560;SDS011;37654;51.262;17.058;2023-02-18T16:03:24;6.75;;;2.90;;
51560;SDS011;37654;51.262;17.058;2023-02-18T16:05:50;6.28;;;2.85;;
51560;SDS011;37654;51.262;17.058;2023-02-18T16:08:16;3.92;;;2.50;;
51560;SDS011;37654;51.262;17.058;2023-02-18T16:13:26;4.05;;;2.75;;
51560;SDS011;37654;51.262;17.058;2023-02-18T16:15:53;4.68;;;3.03;;
51560;SDS011;37654;51.262;17.058;2023-02-18T16:18:20;2.90;;;2.45;;
51560;SDS011;37654;51.262;17.058;2023-02-18T16:20:52;4.25;;;2.40;;
51560;SDS011;37654;51.262;17.058;2023-02-18T16:23:17;2.33;;;1.90;;
51560;SDS011;37654;51.262;17.058;2023-02-18T16:25:49;4.93;;;2.00;;
51560;SDS011;37654;51.262;17.058;2023-02-18T16:28:16;2.50;;;1.83;;
51560;SDS011;37654;51.262;17.058;2023-02-18T16:30:46;3.38;;;1.88;;
51560;SDS011;37654;51.262;17.058;2023-02-18T16:33:11;3.67;;;2.77;;
51560;SDS011;37654;51.262;17.058;2023-02-18T16:35:37;5.13;;;2.88;;
51560;SDS011;37654;51.262;17.058;2023-02-18T16:38:02;5.07;;;1.88;;
51560;SDS011;37654;51.262;17.058;2023-02-18T16:40:34;6.38;;;2.90;;
51560;SDS011;37654;51.262;17.058;2023-02-18T16:43:10;4.78;;;1.95;;
51560;SDS011;37654;51.262;17.058;2023-02-18T16:45:39;5.88;;;2.05;;
51560;SDS011;37654;51.262;17.058;2023-02-18T16:48:05;3.03;;;1.80;;
51560;SDS011;37654;51.262;17.058;2023-02-18T16:50:32;4.20;;;2.40;;
51560;SDS011;37654;51.262;17.058;2023-02-18T16:52:57;4.03;;;1.45;;
51560;SDS011;37654;51.262;17.058;2023-02-18T16:55:24;3.08;;;1.27;;
51560;SDS011;37654;51.262;17.058;2023-02-18T16:57:50;2.78;;;1.23;;